createdAt,value
2019-01-19T00:01:31.561Z,-0.30
2019-01-19T00:04:12.003Z,-0.30
2019-01-19T00:06:49.414Z,-0.40
2019-01-19T00:09:26.557Z,-0.40
2019-01-19T00:12:06.706Z,-0.60
2019-01-19T00:14:35.211Z,-0.50
2019-01-19T00:17:17.928Z,-0.60
2019-01-19T00:20:14.989Z,-0.50
2019-01-19T00:22:49.165Z,-0.60
2019-01-19T00:25:23.682Z,-0.60
2019-01-19T00:28:07.075Z,-0.60
2019-01-19T00:30:44.259Z,-0.50
2019-01-19T00:33:27.796Z,-0.50
2019-01-19T00:36:07.911Z,-0.70
2019-01-19T00:38:59.101Z,-0.70
2019-01-19T00:41:39.331Z,-0.90
2019-01-19T00:44:13.740Z,-0.80
2019-01-19T00:46:45.245Z,-0.90
2019-01-19T00:49:16.635Z,-0.80
2019-01-19T00:52:03.429Z,-0.80
2019-01-19T00:54:34.983Z,-0.70
2019-01-19T00:57:23.989Z,-0.70
2019-01-19T00:59:53.588Z,-0.90
2019-01-19T01:02:31.048Z,-0.90
2019-01-19T01:05:14.416Z,-0.60
2019-01-19T01:07:51.763Z,-0.90
2019-01-19T01:10:25.717Z,-1.00
2019-01-19T01:13:08.992Z,-0.90
2019-01-19T01:15:55.199Z,-0.70
2019-01-19T01:18:57.953Z,-0.70
2019-01-19T01:21:48.691Z,-0.80
2019-01-19T01:24:38.162Z,-0.90
2019-01-19T01:27:09.717Z,-0.80
2019-01-19T01:30:12.428Z,-0.90
2019-01-19T01:32:52.948Z,-0.90
2019-01-19T01:35:33.107Z,-1.00
2019-01-19T01:38:07.436Z,-0.70
2019-01-19T01:41:05.690Z,-0.90
2019-01-19T01:43:37.225Z,-0.80
2019-01-19T01:46:26.361Z,-0.90
2019-01-19T01:49:00.616Z,-1.00
2019-01-19T01:51:34.868Z,-1.00
2019-01-19T01:54:09.154Z,-1.10
2019-01-19T01:56:37.602Z,-0.90
2019-01-19T01:59:09.108Z,-0.80
2019-01-19T02:02:01.565Z,-0.80
2019-01-19T02:04:51.039Z,-1.00
2019-01-19T02:07:22.614Z,-0.90
2019-01-19T02:10:00.042Z,-0.80
2019-01-19T02:13:06.016Z,-0.80
2019-01-19T02:15:52.196Z,-1.10
2019-01-19T02:18:29.570Z,-1.10
2019-01-19T02:21:10.030Z,-1.10
2019-01-19T02:24:03.629Z,-1.30
2019-01-19T02:26:38.062Z,-1.30
2019-01-19T02:29:39.499Z,-1.30
2019-01-19T02:32:28.611Z,-1.40
2019-01-19T02:35:17.903Z,-1.00
2019-01-19T02:37:49.469Z,-1.30
2019-01-19T02:40:23.540Z,-1.30
2019-01-19T02:43:06.660Z,-1.50
2019-01-19T02:45:43.910Z,-1.30
2019-01-19T02:48:36.153Z,-1.30
2019-01-19T02:51:07.672Z,-1.50
2019-01-19T02:54:00.909Z,-1.30
2019-01-19T02:56:34.899Z,-1.30
2019-01-19T02:59:12.381Z,-1.40
2019-01-19T03:01:52.259Z,-1.40
2019-01-19T03:04:41.785Z,-1.00
2019-01-19T03:07:22.176Z,-1.40
2019-01-19T03:10:06.264Z,-1.20
2019-01-19T03:12:53.854Z,-1.30
2019-01-19T03:15:44.410Z,-1.50
2019-01-19T03:18:30.866Z,-1.40
2019-01-19T03:21:27.586Z,-1.40
2019-01-19T03:24:16.814Z,-1.40
2019-01-19T03:26:51.285Z,-1.30
2019-01-19T03:29:34.698Z,-1.50
2019-01-19T03:32:21.221Z,-1.60
2019-01-19T03:35:19.794Z,-1.50
2019-01-19T03:37:56.995Z,-1.70
2019-01-19T03:40:44.133Z,-1.70
2019-01-19T03:43:40.985Z,-1.60
2019-01-19T03:46:30.583Z,-1.60
2019-01-19T03:49:13.962Z,-1.50
2019-01-19T03:52:00.043Z,-1.40
2019-01-19T03:54:52.192Z,-1.40
2019-01-19T03:57:32.356Z,-1.60
2019-01-19T04:00:21.705Z,-1.60
2019-01-19T04:02:55.987Z,-1.60
2019-01-19T04:05:30.037Z,-1.60
2019-01-19T04:08:20.863Z,-1.80
2019-01-19T04:10:55.128Z,-1.70
2019-01-19T04:13:29.350Z,-1.60
2019-01-19T04:16:06.584Z,-1.70
2019-01-19T04:18:46.795Z,-1.80
2019-01-19T04:21:26.829Z,-1.60
2019-01-19T04:23:58.363Z,-1.60
2019-01-19T04:26:29.851Z,-1.80
2019-01-19T04:28:58.369Z,-1.90
2019-01-19T04:31:26.947Z,-1.70
2019-01-19T04:33:55.755Z,-1.80
2019-01-19T04:36:24.344Z,-1.60
2019-01-19T04:38:53.045Z,-1.60
2019-01-19T04:41:21.481Z,-1.80
2019-01-19T04:43:49.948Z,-2.00
2019-01-19T04:46:18.451Z,-1.60
2019-01-19T04:48:47.200Z,-1.50
2019-01-19T04:51:15.905Z,-1.30
2019-01-19T04:53:44.389Z,-1.80
2019-01-19T04:56:12.911Z,-1.70
2019-01-19T04:58:41.413Z,-1.70
2019-01-19T05:01:09.877Z,-1.70
2019-01-19T05:03:38.330Z,-1.80
2019-01-19T05:06:12.145Z,-1.90
2019-01-19T05:08:37.118Z,-1.80
2019-01-19T05:11:05.645Z,-2.10
2019-01-19T05:13:34.086Z,-2.00
2019-01-19T05:16:02.563Z,-1.70
2019-01-19T05:18:30.999Z,-1.80
2019-01-19T05:20:59.735Z,-2.00
2019-01-19T05:23:28.447Z,-2.10
2019-01-19T05:25:56.939Z,-1.90
2019-01-19T05:28:25.487Z,-2.10
2019-01-19T05:30:53.964Z,-2.40
2019-01-19T05:33:22.402Z,-2.10
2019-01-19T05:35:50.855Z,-1.60
2019-01-19T05:38:19.306Z,-1.50
2019-01-19T05:40:47.807Z,-1.70
2019-01-19T05:43:16.268Z,-2.00
2019-01-19T05:45:44.803Z,-2.10
2019-01-19T05:48:13.244Z,-2.00
2019-01-19T05:50:41.754Z,-2.00
2019-01-19T05:53:10.210Z,-1.80
2019-01-19T05:55:38.646Z,-2.00
2019-01-19T05:58:07.106Z,-2.10
2019-01-19T06:00:35.571Z,-2.10
2019-01-19T06:03:04.329Z,-1.60
2019-01-19T06:05:32.771Z,-1.40
2019-01-19T06:08:01.231Z,-1.30
2019-01-19T06:10:29.679Z,-1.80
2019-01-19T06:12:58.155Z,-2.30
2019-01-19T06:15:26.589Z,-2.30
2019-01-19T06:17:55.058Z,-1.60
2019-01-19T06:20:23.560Z,-1.40
2019-01-19T06:22:52.017Z,-1.20
2019-01-19T06:25:20.469Z,-1.40
2019-01-19T06:27:49.062Z,-1.40
2019-01-19T06:30:22.333Z,-1.70
2019-01-19T06:32:50.805Z,-1.70
2019-01-19T06:35:19.388Z,-1.80
2019-01-19T06:37:47.981Z,-1.90
2019-01-19T06:40:18.190Z,-1.90
2019-01-19T06:42:46.837Z,-2.10
2019-01-19T06:45:18.351Z,-2.00
2019-01-19T06:47:46.803Z,-1.80
2019-01-19T06:50:16.649Z,-2.00
2019-01-19T06:52:45.195Z,-2.40
2019-01-19T06:55:25.617Z,-2.30
2019-01-19T06:57:54.107Z,-2.10
2019-01-19T07:00:22.551Z,-1.80
2019-01-19T07:02:51.023Z,-1.90
2019-01-19T07:05:19.610Z,-1.80
2019-01-19T07:07:48.396Z,-2.20
2019-01-19T07:10:22.416Z,-2.10
2019-01-19T07:12:51.065Z,-2.00
2019-01-19T07:15:19.580Z,-1.80
2019-01-19T07:17:48.121Z,-2.30
2019-01-19T07:20:22.087Z,-1.80
2019-01-19T07:22:50.537Z,-1.90
2019-01-19T07:25:18.982Z,-1.50
2019-01-19T07:27:47.511Z,-1.80
2019-01-19T07:30:17.088Z,-1.70
2019-01-19T07:32:46.582Z,-2.00
2019-01-19T07:35:15.658Z,-1.50
2019-01-19T07:37:44.174Z,-1.60
2019-01-19T07:40:17.746Z,-1.50
2019-01-19T07:42:48.686Z,-1.10
2019-01-19T07:45:17.278Z,-0.80
2019-01-19T07:47:45.792Z,-0.80
2019-01-19T07:50:16.876Z,-0.20
2019-01-19T07:52:45.751Z,0.10
2019-01-19T07:55:15.955Z,0.70
2019-01-19T07:57:44.474Z,0.80
2019-01-19T08:00:24.942Z,0.90
2019-01-19T08:02:53.451Z,1.40
2019-01-19T08:05:21.897Z,1.70
2019-01-19T08:07:50.402Z,1.60
2019-01-19T08:10:19.798Z,1.30
2019-01-19T08:12:48.386Z,1.00
2019-01-19T08:15:22.093Z,0.90
2019-01-19T08:17:50.534Z,1.40
2019-01-19T08:20:19.085Z,1.70
2019-01-19T08:22:47.589Z,2.10
2019-01-19T08:25:16.203Z,2.00
2019-01-19T08:27:44.686Z,2.10
2019-01-19T08:30:18.417Z,2.20
2019-01-19T08:32:47.177Z,2.50
2019-01-19T08:35:17.254Z,3.00
2019-01-19T08:37:45.926Z,2.30
2019-01-19T08:40:16.915Z,2.10
2019-01-19T08:42:46.977Z,3.10
2019-01-19T08:45:16.872Z,3.50
2019-01-19T08:47:45.371Z,3.60
2019-01-19T08:50:14.049Z,3.60
2019-01-19T08:52:42.489Z,3.20
2019-01-19T08:55:11.009Z,3.20
2019-01-19T08:57:39.488Z,3.70
2019-01-19T09:00:13.811Z,4.00
2019-01-19T09:02:42.319Z,4.20
2019-01-19T09:05:11.721Z,4.50
2019-01-19T09:07:40.153Z,5.50
2019-01-19T09:10:16.678Z,5.00
2019-01-19T09:12:45.197Z,4.90
2019-01-19T09:15:16.729Z,6.50
2019-01-19T09:17:45.311Z,6.50
2019-01-19T09:20:15.897Z,6.50
2019-01-19T09:22:44.545Z,7.00
2019-01-19T09:25:14.734Z,7.50
2019-01-19T09:27:43.244Z,7.30
2019-01-19T09:30:17.153Z,7.00
2019-01-19T09:32:46.002Z,7.60
2019-01-19T09:35:14.526Z,8.30
2019-01-19T09:37:42.965Z,7.50
2019-01-19T09:40:14.272Z,8.50
2019-01-19T09:42:42.766Z,8.10
2019-01-19T09:45:17.178Z,8.50
2019-01-19T09:47:45.622Z,8.80
2019-01-19T09:50:21.178Z,8.30
2019-01-19T09:52:49.718Z,8.30
2019-01-19T09:55:18.226Z,6.40
2019-01-19T09:57:46.859Z,8.50
2019-01-19T10:00:21.128Z,7.80
2019-01-19T10:02:49.653Z,8.30
2019-01-19T10:05:23.096Z,9.40
2019-01-19T10:07:52.044Z,8.40
2019-01-19T10:10:20.574Z,9.00
2019-01-19T10:12:49.034Z,8.30
2019-01-19T10:15:18.599Z,7.90
2019-01-19T10:17:47.139Z,9.10
2019-01-19T10:20:18.535Z,8.10
2019-01-19T10:22:47.258Z,9.60
2019-01-19T10:25:16.649Z,10.70
2019-01-19T10:27:45.322Z,9.20
2019-01-19T10:30:24.549Z,8.80
2019-01-19T10:32:53.156Z,9.50
2019-01-19T10:35:21.669Z,10.40
2019-01-19T10:37:56.292Z,9.50
2019-01-19T10:40:20.534Z,9.70
2019-01-19T10:42:48.996Z,10.60
2019-01-19T10:45:26.336Z,8.20
2019-01-19T10:47:54.799Z,7.80
2019-01-19T10:50:23.384Z,7.80
2019-01-19T10:52:52.015Z,9.10
2019-01-19T10:55:22.469Z,10.90
2019-01-19T10:57:51.106Z,9.70
2019-01-19T11:00:25.129Z,8.00
2019-01-19T11:02:54.067Z,8.70
2019-01-19T11:05:22.792Z,8.80
2019-01-19T11:07:51.463Z,9.50
2019-01-19T11:10:22.251Z,9.00
2019-01-19T11:12:50.969Z,8.80
2019-01-19T11:15:19.643Z,8.80
2019-01-19T11:17:48.219Z,8.90
2019-01-19T11:20:18.843Z,10.60
2019-01-19T11:22:47.426Z,8.80
2019-01-19T11:25:16.092Z,7.80
2019-01-19T11:27:44.725Z,6.90
2019-01-19T11:30:16.423Z,6.80
2019-01-19T11:32:44.952Z,6.30
2019-01-19T11:35:14.270Z,5.90
2019-01-19T11:37:42.799Z,5.90
2019-01-19T11:40:14.329Z,6.60
2019-01-19T11:42:42.793Z,7.50
2019-01-19T11:45:16.620Z,8.10
2019-01-19T11:47:45.065Z,6.70
2019-01-19T11:50:15.213Z,7.20
2019-01-19T11:52:43.666Z,7.00
2019-01-19T11:55:16.298Z,7.50
2019-01-19T11:57:44.752Z,7.80
2019-01-19T12:00:18.288Z,8.60
2019-01-19T12:02:46.880Z,9.40
2019-01-19T12:05:15.447Z,8.10
2019-01-19T12:07:44.175Z,6.90
2019-01-19T12:10:26.468Z,6.90
2019-01-19T12:12:54.935Z,6.20
2019-01-19T12:15:23.474Z,6.00
2019-01-19T12:17:51.906Z,7.00
2019-01-19T12:20:26.280Z,7.80
2019-01-19T12:22:54.786Z,8.20
2019-01-19T12:25:24.670Z,8.80
2019-01-19T12:27:53.266Z,7.50
2019-01-19T12:30:32.694Z,7.20
2019-01-19T12:33:01.207Z,8.00
2019-01-19T12:35:29.887Z,7.70
2019-01-19T12:37:59.471Z,7.80
2019-01-19T12:40:29.718Z,7.30
2019-01-19T12:43:09.895Z,8.50
2019-01-19T12:45:47.736Z,9.00
2019-01-19T12:48:16.163Z,8.70
2019-01-19T12:50:44.631Z,8.30
2019-01-19T12:53:13.271Z,8.90
2019-01-19T12:55:41.797Z,8.50
2019-01-19T12:58:10.770Z,9.20
2019-01-19T13:00:39.309Z,8.30
2019-01-19T13:03:08.679Z,7.00
2019-01-19T13:05:41.231Z,6.90
2019-01-19T13:08:15.797Z,7.90
2019-01-19T13:10:50.168Z,8.10
2019-01-19T13:13:18.757Z,8.10
2019-01-19T13:15:50.351Z,6.90
2019-01-19T13:18:40.983Z,6.80
2019-01-19T13:21:28.613Z,6.50
2019-01-19T13:24:12.201Z,7.10
2019-01-19T13:26:43.747Z,6.80
2019-01-19T13:29:31.715Z,7.00
2019-01-19T13:32:20.679Z,6.60
2019-01-19T13:35:00.991Z,6.30
2019-01-19T13:37:44.409Z,6.40
2019-01-19T13:40:47.529Z,6.00
2019-01-19T13:43:30.971Z,6.40
2019-01-19T13:46:11.387Z,6.00
2019-01-19T13:48:48.611Z,5.60
2019-01-19T13:51:28.828Z,5.40
2019-01-19T13:54:03.275Z,5.10
2019-01-19T13:56:54.208Z,5.20
2019-01-19T13:59:26.066Z,4.90
2019-01-19T14:02:22.778Z,4.70
2019-01-19T14:05:00.492Z,4.30
2019-01-19T14:08:05.019Z,3.70
2019-01-19T14:10:42.206Z,3.80
2019-01-19T14:13:16.382Z,3.70
2019-01-19T14:15:47.913Z,3.60
2019-01-19T14:18:25.131Z,3.50
2019-01-19T14:21:16.235Z,3.40
2019-01-19T14:24:02.754Z,3.70
2019-01-19T14:26:37.225Z,3.50
2019-01-19T14:29:43.230Z,3.70
2019-01-19T14:32:20.471Z,3.70
2019-01-19T14:35:15.812Z,3.40
2019-01-19T14:37:56.007Z,3.30
2019-01-19T14:40:27.520Z,3.20
2019-01-19T14:43:13.862Z,3.10
2019-01-19T14:45:54.103Z,3.20
2019-01-19T14:48:40.433Z,3.20
2019-01-19T14:51:17.712Z,3.20
2019-01-19T14:53:52.129Z,3.10
2019-01-19T14:56:29.150Z,2.90
2019-01-19T14:59:17.377Z,2.80
2019-01-19T15:02:06.680Z,2.80
2019-01-19T15:04:40.764Z,2.70
2019-01-19T15:07:17.941Z,2.70
2019-01-19T15:09:55.141Z,2.70
2019-01-19T15:12:32.327Z,2.60
2019-01-19T15:15:15.528Z,2.60
2019-01-19T15:18:04.637Z,2.50
2019-01-19T15:20:56.847Z,2.50
2019-01-19T15:23:46.270Z,2.40
2019-01-19T15:26:29.695Z,2.40
2019-01-19T15:29:01.202Z,2.40
2019-01-19T15:31:33.062Z,2.30
2019-01-19T15:34:21.091Z,2.30
2019-01-19T15:37:04.690Z,2.20
2019-01-19T15:39:36.287Z,2.20
2019-01-19T15:42:16.707Z,2.20
2019-01-19T15:45:06.378Z,2.20
2019-01-19T15:47:37.935Z,2.20
2019-01-19T15:50:30.110Z,2.10
2019-01-19T15:53:07.194Z,2.00
2019-01-19T15:55:47.525Z,2.00
2019-01-19T15:58:33.774Z,2.10
2019-01-19T16:01:17.105Z,2.10
2019-01-19T16:03:48.644Z,2.00
2019-01-19T16:06:34.974Z,2.20
2019-01-19T16:09:22.634Z,2.10
2019-01-19T16:11:57.108Z,2.20
2019-01-19T16:14:45.251Z,2.20
2019-01-19T16:17:16.769Z,2.10
2019-01-19T16:19:51.016Z,2.10
2019-01-19T16:22:43.435Z,1.80
2019-01-19T16:25:23.834Z,1.60
2019-01-19T16:28:11.803Z,1.60
2019-01-19T16:31:08.975Z,1.70
2019-01-19T16:33:52.354Z,1.60
2019-01-19T16:36:40.363Z,1.60
2019-01-19T16:39:14.722Z,1.70
2019-01-19T16:42:00.940Z,1.70
2019-01-19T16:44:41.317Z,1.60
2019-01-19T16:47:24.698Z,1.70
2019-01-19T16:50:21.547Z,1.60
2019-01-19T16:52:58.913Z,1.50
2019-01-19T16:55:45.038Z,1.60
2019-01-19T16:58:19.657Z,1.50
2019-01-19T17:00:56.963Z,1.40
2019-01-19T17:03:37.893Z,1.30
2019-01-19T17:06:40.915Z,1.40
2019-01-19T17:09:33.171Z,1.10
2019-01-19T17:12:12.510Z,0.90
2019-01-19T17:14:58.948Z,1.00
2019-01-19T17:17:48.609Z,1.00
2019-01-19T17:20:26.018Z,1.10
2019-01-19T17:23:06.408Z,1.10
2019-01-19T17:25:52.289Z,1.10
2019-01-19T17:28:40.237Z,0.90
2019-01-19T17:31:26.451Z,0.80
2019-01-19T17:34:03.787Z,0.70
2019-01-19T17:36:47.311Z,0.60
2019-01-19T17:39:45.693Z,0.50
2019-01-19T17:42:20.338Z,0.40
2019-01-19T17:45:20.209Z,0.50
2019-01-19T17:48:19.828Z,0.40
2019-01-19T17:51:05.999Z,0.50
2019-01-19T17:53:46.267Z,0.40
2019-01-19T17:56:32.832Z,0.30
2019-01-19T17:59:23.666Z,0.30
2019-01-19T18:01:57.735Z,0.40
2019-01-19T18:04:41.230Z,0.40
2019-01-19T18:07:33.592Z,0.50
2019-01-19T18:10:17.104Z,0.30
2019-01-19T18:12:57.686Z,0.30
2019-01-19T18:15:40.970Z,0.30
2019-01-19T18:18:21.282Z,0.40
2019-01-19T18:21:05.132Z,0.40
2019-01-19T18:23:39.555Z,0.40
2019-01-19T18:26:39.529Z,0.40
2019-01-19T18:29:33.349Z,0.40
2019-01-19T18:32:04.927Z,0.30
2019-01-19T18:34:55.822Z,0.40
2019-01-19T18:37:47.991Z,0.10
2019-01-19T18:40:28.429Z,0.30
2019-01-19T18:43:08.759Z,0.00
2019-01-19T18:45:49.276Z,0.00
2019-01-19T18:48:23.638Z,-0.20
2019-01-19T18:51:28.276Z,0.00
2019-01-19T18:54:25.393Z,0.00
2019-01-19T18:57:06.003Z,0.20
2019-01-19T18:59:43.493Z,-0.10
2019-01-19T19:02:20.579Z,-0.10
2019-01-19T19:05:00.772Z,-0.10
2019-01-19T19:07:45.201Z,-0.10
2019-01-19T19:10:22.570Z,-0.10
2019-01-19T19:13:09.263Z,-0.10
2019-01-19T19:16:00.352Z,-0.40
2019-01-19T19:18:50.155Z,-0.30
2019-01-19T19:21:47.410Z,-0.40
2019-01-19T19:24:33.999Z,-0.40
2019-01-19T19:27:21.766Z,-0.50
2019-01-19T19:29:59.274Z,-0.50
2019-01-19T19:32:57.878Z,-0.50
2019-01-19T19:35:53.100Z,-0.60
2019-01-19T19:38:43.971Z,-0.60
2019-01-19T19:41:48.422Z,-0.60
2019-01-19T19:44:36.193Z,-0.60
2019-01-19T19:47:28.688Z,-0.60
2019-01-19T19:50:19.406Z,-0.40
2019-01-19T19:52:47.960Z,-0.40
2019-01-19T19:55:15.322Z,-0.60
2019-01-19T19:57:43.804Z,-0.50
2019-01-19T20:00:12.552Z,-0.50
2019-01-19T20:02:41.452Z,-0.40
2019-01-19T20:05:10.449Z,-0.40
2019-01-19T20:07:38.981Z,-0.40
2019-01-19T20:10:16.965Z,-0.30
2019-01-19T20:12:42.838Z,-0.70
2019-01-19T20:15:11.551Z,-1.00
2019-01-19T20:17:40.109Z,-1.20
2019-01-19T20:20:10.502Z,-1.00
2019-01-19T20:22:38.953Z,-1.20
2019-01-19T20:25:08.162Z,-1.10
2019-01-19T20:27:36.703Z,-1.00
2019-01-19T20:30:10.996Z,-0.80
2019-01-19T20:32:39.443Z,-0.80
2019-01-19T20:35:08.694Z,-0.90
2019-01-19T20:37:37.385Z,-1.00
2019-01-19T20:40:08.669Z,-0.70
2019-01-19T20:42:37.407Z,-0.70
2019-01-19T20:45:11.459Z,-0.80
2019-01-19T20:47:39.952Z,-1.00
2019-01-19T20:50:11.085Z,-0.90
2019-01-19T20:52:39.808Z,-1.20
2019-01-19T20:55:10.296Z,-0.90
2019-01-19T20:57:38.835Z,-1.10
2019-01-19T21:00:18.653Z,-1.10
2019-01-19T21:02:47.262Z,-1.40
2019-01-19T21:05:15.896Z,-1.20
2019-01-19T21:07:44.343Z,-1.30
2019-01-19T21:10:13.090Z,-1.30
2019-01-19T21:12:41.577Z,-1.30
2019-01-19T21:15:15.387Z,-1.50
2019-01-19T21:17:43.989Z,-1.50
2019-01-19T21:20:15.013Z,-1.20
2019-01-19T21:22:43.528Z,-1.30
2019-01-19T21:25:13.345Z,-1.20
2019-01-19T21:27:41.863Z,-1.20
2019-01-19T21:30:13.280Z,-1.20
2019-01-19T21:32:41.749Z,-1.10
2019-01-19T21:35:10.341Z,-1.40
2019-01-19T21:37:38.865Z,-1.10
2019-01-19T21:40:10.444Z,-1.60
2019-01-19T21:42:38.888Z,-1.80
2019-01-19T21:45:10.416Z,-1.90
2019-01-19T21:47:38.880Z,-2.00
2019-01-19T21:50:09.464Z,-2.00
2019-01-19T21:52:38.159Z,-2.10
2019-01-19T21:55:08.760Z,-2.00
2019-01-19T21:57:37.270Z,-2.10
2019-01-19T22:00:11.573Z,-2.00
2019-01-19T22:02:40.437Z,-2.00
2019-01-19T22:05:09.057Z,-2.10
2019-01-19T22:07:37.534Z,-2.10
2019-01-19T22:10:09.056Z,-2.20
2019-01-19T22:12:37.511Z,-2.30
2019-01-19T22:15:09.352Z,-2.20
2019-01-19T22:17:39.749Z,-2.20
2019-01-19T22:20:10.732Z,-2.10
2019-01-19T22:22:39.202Z,-2.20
2019-01-19T22:25:08.285Z,-2.20
2019-01-19T22:27:37.981Z,-2.30
2019-01-19T22:30:12.328Z,-2.30
2019-01-19T22:32:40.805Z,-2.30
2019-01-19T22:35:10.186Z,-2.40
2019-01-19T22:37:38.735Z,-2.50
2019-01-19T22:40:13.386Z,-2.40
2019-01-19T22:42:42.095Z,-2.30
2019-01-19T22:45:12.581Z,-2.50
2019-01-19T22:47:41.039Z,-2.40
2019-01-19T22:50:14.607Z,-2.40
2019-01-19T22:52:43.100Z,-2.40
2019-01-19T22:55:12.279Z,-2.50
2019-01-19T22:57:40.747Z,-2.60
2019-01-19T23:00:30.391Z,-2.50
2019-01-19T23:02:58.941Z,-2.60
2019-01-19T23:05:27.455Z,-2.50
2019-01-19T23:07:55.915Z,-2.60
2019-01-19T23:10:24.461Z,-2.50
2019-01-19T23:12:52.927Z,-2.50
2019-01-19T23:15:21.371Z,-2.50
2019-01-19T23:17:49.869Z,-2.50
2019-01-19T23:20:18.311Z,-2.40
2019-01-19T23:22:46.771Z,-2.40
2019-01-19T23:25:15.285Z,-2.50
2019-01-19T23:27:43.866Z,-2.60
2019-01-19T23:30:14.846Z,-2.80
2019-01-19T23:32:43.319Z,-2.90
2019-01-19T23:35:11.915Z,-2.60
2019-01-19T23:37:40.365Z,-2.60
2019-01-19T23:40:11.849Z,-2.70
2019-01-19T23:42:47.158Z,-2.70
2019-01-19T23:45:11.086Z,-2.70
2019-01-19T23:47:39.690Z,-2.80
2019-01-19T23:50:09.672Z,-2.80
2019-01-19T23:52:38.173Z,-3.00
2019-01-19T23:55:06.878Z,-2.90
2019-01-19T23:57:35.642Z,-2.70
